createdAt,value
2023-04-22T00:01:15.386Z,6.70
2023-04-22T00:03:48.618Z,6.57
2023-04-22T00:06:21.620Z,6.10
2023-04-22T00:08:54.741Z,6.20
2023-04-22T00:11:27.906Z,6.43
2023-04-22T00:14:00.847Z,6.63
2023-04-22T00:16:35.283Z,6.30
2023-04-22T00:19:10.526Z,5.77
2023-04-22T00:21:43.345Z,6.63
2023-04-22T00:24:16.221Z,6.93
2023-04-22T00:26:49.107Z,6.17
2023-04-22T00:29:21.966Z,6.13
2023-04-22T00:31:56.310Z,6.07
2023-04-22T00:34:29.234Z,6.27
2023-04-22T00:37:02.524Z,6.53
2023-04-22T00:39:35.520Z,6.37
2023-04-22T00:42:08.457Z,6.97
2023-04-22T00:44:42.396Z,6.30
2023-04-22T00:47:17.358Z,6.60
2023-04-22T00:49:50.537Z,6.20
2023-04-22T00:52:23.205Z,6.63
2023-04-22T00:54:56.246Z,7.03
2023-04-22T00:57:31.086Z,6.13
2023-04-22T01:00:06.297Z,6.47
2023-04-22T01:02:40.751Z,6.90
2023-04-22T01:05:13.937Z,6.43
2023-04-22T01:07:46.982Z,6.20
2023-04-22T01:10:20.679Z,7.27
2023-04-22T01:12:53.637Z,7.10
2023-04-22T01:15:28.586Z,6.50
2023-04-22T01:18:03.682Z,6.20
2023-04-22T01:20:36.907Z,6.63
2023-04-22T01:23:16.323Z,6.97
2023-04-22T01:25:49.658Z,7.40
2023-04-22T01:28:22.755Z,7.03
2023-04-22T01:30:56.659Z,7.30
2023-04-22T01:33:29.517Z,7.13
2023-04-22T01:36:05.458Z,6.70
2023-04-22T01:38:42.340Z,7.03
2023-04-22T01:41:21.290Z,7.10
2023-04-22T01:43:54.477Z,7.17
2023-04-22T01:46:36.596Z,7.33
2023-04-22T01:49:09.509Z,7.00
2023-04-22T01:51:42.434Z,6.90
2023-04-22T01:54:17.465Z,7.20
2023-04-22T01:56:51.368Z,7.67
2023-04-22T01:59:24.223Z,7.33
2023-04-22T02:01:57.277Z,7.00
2023-04-22T02:04:30.259Z,7.63
2023-04-22T02:07:03.002Z,7.20
2023-04-22T02:09:37.852Z,6.97
2023-04-22T02:12:13.815Z,6.90
2023-04-22T02:14:46.702Z,7.40
2023-04-22T02:17:19.656Z,6.60
2023-04-22T02:19:53.065Z,7.03
2023-04-22T02:22:27.396Z,6.93
2023-04-22T02:25:01.928Z,7.37
2023-04-22T02:27:35.016Z,7.10
2023-04-22T02:30:09.761Z,7.57
2023-04-22T02:32:42.935Z,7.00
2023-04-22T02:35:15.824Z,7.17
2023-04-22T02:37:48.806Z,6.70
2023-04-22T02:40:23.409Z,7.57
2023-04-22T02:42:56.288Z,7.40
2023-04-22T02:45:29.177Z,7.73
2023-04-22T02:48:02.217Z,7.13
2023-04-22T02:50:35.381Z,7.43
2023-04-22T02:53:09.517Z,7.57
2023-04-22T02:55:44.448Z,7.10
2023-04-22T02:58:17.798Z,7.50
2023-04-22T03:00:50.896Z,7.73
2023-04-22T03:03:24.116Z,7.37
2023-04-22T03:05:57.110Z,8.57
2023-04-22T03:08:30.560Z,7.50
2023-04-22T03:11:05.926Z,7.20
2023-04-22T03:13:39.000Z,7.07
2023-04-22T03:16:12.016Z,7.77
2023-04-22T03:18:45.074Z,7.40
2023-04-22T03:21:17.962Z,8.10
2023-04-22T03:23:51.142Z,7.80
2023-04-22T03:26:25.601Z,7.63
2023-04-22T03:28:58.535Z,8.00
2023-04-22T03:31:31.599Z,7.27
2023-04-22T03:34:04.927Z,7.17
2023-04-22T03:36:40.575Z,8.23
2023-04-22T03:39:13.369Z,7.23
2023-04-22T03:41:47.582Z,7.60
2023-04-22T03:44:20.484Z,7.90
2023-04-22T03:46:53.259Z,8.03
2023-04-22T03:49:26.443Z,7.70
2023-04-22T03:51:59.335Z,7.60
2023-04-22T03:54:34.918Z,7.70
2023-04-22T03:57:09.224Z,7.33
2023-04-22T03:59:51.448Z,8.40
2023-04-22T04:02:24.601Z,7.60
2023-04-22T04:04:57.971Z,8.10
2023-04-22T04:07:31.649Z,8.73
2023-04-22T04:10:08.611Z,8.13
2023-04-22T04:12:44.656Z,8.67
2023-04-22T04:15:18.940Z,7.53
2023-04-22T04:17:51.786Z,7.80
2023-04-22T04:20:25.451Z,8.03
2023-04-22T04:22:58.336Z,7.43
2023-04-22T04:25:38.730Z,7.97
2023-04-22T04:28:15.487Z,8.03
2023-04-22T04:30:53.829Z,8.27
2023-04-22T04:33:27.771Z,8.50
2023-04-22T04:36:03.503Z,8.57
2023-04-22T04:38:36.304Z,8.17
2023-04-22T04:41:09.799Z,8.90
2023-04-22T04:43:46.620Z,7.77
2023-04-22T04:46:20.923Z,8.90
2023-04-22T04:48:54.154Z,9.07
2023-04-22T04:51:27.141Z,8.53
2023-04-22T04:53:59.965Z,8.67
2023-04-22T04:56:33.185Z,8.53
2023-04-22T04:59:07.265Z,8.17
2023-04-22T05:01:40.376Z,8.60
2023-04-22T05:04:13.394Z,8.00
2023-04-22T05:06:46.561Z,9.33
2023-04-22T05:09:19.248Z,8.60
2023-04-22T05:11:52.002Z,8.63
2023-04-22T05:14:26.686Z,8.77
2023-04-22T05:16:59.917Z,8.90
2023-04-22T05:19:33.122Z,8.50
2023-04-22T05:22:05.892Z,8.50
2023-04-22T05:24:38.906Z,8.90
2023-04-22T05:27:12.152Z,8.37
2023-04-22T05:29:47.041Z,8.83
2023-04-22T05:32:19.998Z,9.93
2023-04-22T05:34:52.881Z,9.30
2023-04-22T05:37:25.785Z,8.80
2023-04-22T05:39:59.280Z,8.17
2023-04-22T05:42:32.429Z,10.17
2023-04-22T05:45:07.723Z,8.57
2023-04-22T05:47:40.814Z,8.07
2023-04-22T05:50:13.942Z,8.13
2023-04-22T05:52:46.749Z,8.83
2023-04-22T05:55:19.835Z,9.33
2023-04-22T05:57:52.786Z,9.97
2023-04-22T06:00:27.156Z,10.27
2023-04-22T06:03:00.187Z,9.47
2023-04-22T06:05:36.150Z,8.87
2023-04-22T06:08:08.914Z,9.63
2023-04-22T06:10:41.662Z,8.80
2023-04-22T06:13:14.550Z,9.80
2023-04-22T06:15:48.903Z,9.50
2023-04-22T06:18:22.048Z,8.63
2023-04-22T06:20:54.954Z,9.20
2023-04-22T06:23:27.801Z,9.20
2023-04-22T06:26:01.516Z,9.67
2023-04-22T06:28:34.614Z,8.97
2023-04-22T06:31:08.913Z,9.10
2023-04-22T06:33:41.745Z,9.77
2023-04-22T06:36:14.838Z,9.53
2023-04-22T06:38:47.926Z,9.70
2023-04-22T06:41:24.570Z,9.30
2023-04-22T06:43:57.428Z,9.57
2023-04-22T06:46:31.745Z,9.50
2023-04-22T06:49:06.360Z,8.93
2023-04-22T06:51:39.253Z,9.43
2023-04-22T06:54:12.204Z,9.23
2023-04-22T06:56:47.705Z,10.00
2023-04-22T06:59:23.052Z,9.10
2023-04-22T07:01:57.400Z,9.30
2023-04-22T07:04:31.857Z,10.17
2023-04-22T07:07:04.858Z,9.10
2023-04-22T07:09:38.009Z,8.93
2023-04-22T07:12:11.031Z,9.47
2023-04-22T07:14:44.456Z,10.27
2023-04-22T07:17:22.266Z,9.67
2023-04-22T07:19:55.270Z,9.07
2023-04-22T07:22:28.262Z,9.30
2023-04-22T07:25:01.041Z,9.27
2023-04-22T07:27:35.182Z,9.50
2023-04-22T07:30:09.051Z,9.50
2023-04-22T07:32:43.231Z,9.07
2023-04-22T07:35:16.200Z,9.13
2023-04-22T07:37:48.944Z,9.50
2023-04-22T07:40:21.910Z,9.57
2023-04-22T07:42:54.781Z,9.50
2023-04-22T07:45:27.810Z,8.43
2023-04-22T07:48:02.221Z,9.47
2023-04-22T07:50:38.156Z,8.80
2023-04-22T07:53:12.683Z,9.03
2023-04-22T07:55:46.320Z,8.97
2023-04-22T07:58:19.291Z,8.40
2023-04-22T08:00:52.186Z,9.03
2023-04-22T08:03:26.973Z,9.57
2023-04-22T08:05:59.870Z,8.37
2023-04-22T08:08:32.648Z,8.80
2023-04-22T08:11:05.754Z,9.33
2023-04-22T08:13:38.612Z,8.33
2023-04-22T08:16:12.469Z,8.20
2023-04-22T08:18:46.719Z,10.23
2023-04-22T08:21:19.653Z,8.57
2023-04-22T08:23:53.754Z,8.43
2023-04-22T08:26:27.622Z,9.27
2023-04-22T08:29:01.568Z,8.60
2023-04-22T08:31:35.001Z,9.00
2023-04-22T08:34:09.182Z,9.03
2023-04-22T08:36:42.084Z,9.07
2023-04-22T08:39:15.094Z,8.97
2023-04-22T08:41:47.941Z,9.40
2023-04-22T08:44:21.232Z,8.30
2023-04-22T08:46:54.648Z,8.07
2023-04-22T08:49:31.105Z,8.23
2023-04-22T08:52:06.443Z,7.70
2023-04-22T08:54:39.392Z,8.20
2023-04-22T08:57:16.612Z,8.57
2023-04-22T08:59:51.083Z,8.30
2023-04-22T09:02:24.994Z,7.57
2023-04-22T09:05:01.099Z,7.67
2023-04-22T09:07:35.585Z,8.27
2023-04-22T09:10:09.134Z,7.30
2023-04-22T09:12:46.531Z,8.50
2023-04-22T09:15:19.531Z,8.03
2023-04-22T09:17:52.808Z,7.80
2023-04-22T09:20:28.766Z,7.33
2023-04-22T09:23:03.991Z,7.77
2023-04-22T09:25:39.967Z,7.53
2023-04-22T09:28:13.510Z,7.43
2023-04-22T09:30:46.919Z,8.90
2023-04-22T09:33:28.646Z,8.07
2023-04-22T09:36:09.546Z,7.57
2023-04-22T09:38:45.275Z,7.57
2023-04-22T09:41:27.692Z,6.97
2023-04-22T09:44:02.464Z,7.13
2023-04-22T09:46:35.968Z,6.93
2023-04-22T09:49:08.917Z,7.33
2023-04-22T09:51:43.207Z,6.83
2023-04-22T09:54:16.010Z,7.40
2023-04-22T09:56:52.099Z,7.37
2023-04-22T09:59:25.948Z,6.83
2023-04-22T10:02:04.452Z,7.13
2023-04-22T10:04:37.855Z,6.90
2023-04-22T10:07:12.015Z,6.80
2023-04-22T10:09:44.929Z,6.67
2023-04-22T10:12:25.939Z,6.60
2023-04-22T10:15:02.634Z,7.07
2023-04-22T10:17:38.293Z,6.50
2023-04-22T10:20:14.309Z,6.67
2023-04-22T10:22:51.296Z,6.87
2023-04-22T10:25:25.571Z,6.90
2023-04-22T10:28:03.316Z,7.50
2023-04-22T10:30:36.975Z,6.97
2023-04-22T10:33:28.879Z,6.10
2023-04-22T10:36:09.749Z,6.77
2023-04-22T10:39:04.775Z,6.50
2023-04-22T10:41:39.652Z,6.87
2023-04-22T10:44:12.542Z,6.67
2023-04-22T10:46:58.326Z,6.50
2023-04-22T10:49:31.917Z,6.30
2023-04-22T10:52:06.480Z,7.10
2023-04-22T10:54:57.674Z,7.30
2023-04-22T10:57:48.232Z,6.73
2023-04-22T11:00:28.053Z,6.53
2023-04-22T11:03:14.655Z,6.63
2023-04-22T11:05:47.805Z,6.70
2023-04-22T11:08:23.015Z,6.70
2023-04-22T11:11:08.887Z,5.87
2023-04-22T11:13:42.307Z,6.40
2023-04-22T11:16:22.141Z,6.43
2023-04-22T11:18:57.732Z,5.73
2023-04-22T11:21:32.631Z,5.70
2023-04-22T11:24:06.340Z,5.93
2023-04-22T11:26:40.938Z,5.80
2023-04-22T11:29:13.843Z,5.27
2023-04-22T11:31:49.649Z,5.70
2023-04-22T11:34:24.778Z,5.80
2023-04-22T11:36:59.288Z,7.00
2023-04-22T11:39:37.575Z,6.03
2023-04-22T11:42:13.581Z,5.97
2023-04-22T11:44:46.537Z,5.80
2023-04-22T11:47:20.964Z,5.83
2023-04-22T11:49:57.656Z,6.07
2023-04-22T11:52:44.453Z,5.67
2023-04-22T11:55:18.386Z,5.73
2023-04-22T11:57:56.367Z,5.70
2023-04-22T12:00:30.721Z,5.47
2023-04-22T12:03:05.769Z,5.53
2023-04-22T12:05:40.172Z,5.30
2023-04-22T12:08:14.152Z,4.97
2023-04-22T12:10:49.778Z,5.17
2023-04-22T12:13:23.173Z,6.50
2023-04-22T12:15:57.368Z,6.40
2023-04-22T12:18:32.192Z,6.30
2023-04-22T12:21:09.730Z,6.70
2023-04-22T12:23:43.365Z,5.77
2023-04-22T12:26:16.704Z,5.70
2023-04-22T12:28:50.217Z,6.20
2023-04-22T12:31:24.986Z,7.03
2023-04-22T12:34:00.298Z,6.63
2023-04-22T12:36:34.327Z,6.40
2023-04-22T12:39:08.313Z,6.37
2023-04-22T12:41:41.405Z,5.60
2023-04-22T12:44:15.638Z,6.00
2023-04-22T12:46:48.635Z,6.20
2023-04-22T12:49:22.864Z,7.67
2023-04-22T12:51:55.919Z,8.17
2023-04-22T12:54:29.073Z,7.10
2023-04-22T12:57:02.822Z,6.43
2023-04-22T12:59:38.979Z,6.17
2023-04-22T13:02:12.278Z,6.30
2023-04-22T13:04:48.958Z,6.40
2023-04-22T13:07:21.893Z,6.47
2023-04-22T13:09:55.139Z,6.40
2023-04-22T13:12:28.115Z,5.50
2023-04-22T13:15:01.042Z,6.03
2023-04-22T13:17:34.173Z,5.13
2023-04-22T13:20:12.131Z,5.30
2023-04-22T13:22:45.973Z,6.07
2023-04-22T13:25:18.873Z,5.13
2023-04-22T13:27:51.820Z,5.70
2023-04-22T13:30:24.774Z,6.10
2023-04-22T13:32:57.873Z,6.60
2023-04-22T13:35:32.122Z,6.63
2023-04-22T13:38:05.113Z,5.97
2023-04-22T13:40:38.288Z,5.57
2023-04-22T13:43:14.073Z,5.90
2023-04-22T13:45:48.404Z,6.60
2023-04-22T13:48:21.527Z,5.97
2023-04-22T13:51:10.646Z,5.63
2023-04-22T13:54:04.565Z,6.60
2023-04-22T13:56:46.927Z,6.53
2023-04-22T13:59:19.957Z,7.07
2023-04-22T14:01:52.896Z,7.07
2023-04-22T14:04:25.721Z,6.17
2023-04-22T14:07:00.001Z,6.70
2023-04-22T14:09:34.497Z,6.13
2023-04-22T14:12:08.342Z,6.17
2023-04-22T14:14:41.216Z,6.30
2023-04-22T14:17:14.134Z,6.23
2023-04-22T14:19:47.176Z,6.73
2023-04-22T14:22:21.454Z,6.20
2023-04-22T14:24:54.360Z,6.60
2023-04-22T14:27:27.138Z,6.60
2023-04-22T14:30:00.185Z,6.30
2023-04-22T14:32:33.194Z,6.80
2023-04-22T14:35:06.575Z,6.80
2023-04-22T14:37:41.721Z,5.63
2023-04-22T14:40:14.755Z,6.33
2023-04-22T14:42:47.991Z,6.03
2023-04-22T14:45:21.233Z,6.17
2023-04-22T14:47:54.239Z,6.50
2023-04-22T14:50:27.391Z,6.50
2023-04-22T14:53:01.931Z,5.87
2023-04-22T14:55:35.733Z,6.27
2023-04-22T14:58:08.584Z,5.80
2023-04-22T15:00:41.986Z,6.60
2023-04-22T15:03:15.043Z,6.27
2023-04-22T15:05:49.356Z,6.83
2023-04-22T15:08:25.200Z,6.60
2023-04-22T15:10:59.695Z,7.17
2023-04-22T15:13:32.738Z,6.40
2023-04-22T15:16:06.564Z,6.53
2023-04-22T15:18:39.930Z,6.93
2023-04-22T15:21:13.343Z,5.87
2023-04-22T15:23:48.286Z,5.70
2023-04-22T15:26:21.236Z,5.80
2023-04-22T15:28:55.637Z,9.33
2023-04-22T15:31:29.359Z,8.40
2023-04-22T15:34:02.372Z,6.37
2023-04-22T15:36:35.552Z,6.93
2023-04-22T15:39:13.599Z,7.77
2023-04-22T15:41:47.979Z,6.07
2023-04-22T15:44:21.014Z,6.63
2023-04-22T15:46:54.117Z,6.27
2023-04-22T15:49:26.959Z,8.23
2023-04-22T15:52:01.103Z,6.63
2023-04-22T15:54:35.816Z,5.90
2023-04-22T15:57:09.150Z,6.73
2023-04-22T15:59:43.066Z,6.30
2023-04-22T16:02:16.441Z,6.23
2023-04-22T16:04:50.525Z,8.37
2023-04-22T16:07:23.635Z,6.30
2023-04-22T16:09:58.073Z,6.20
2023-04-22T16:12:33.514Z,5.93
2023-04-22T16:15:08.233Z,6.03
2023-04-22T16:17:41.767Z,6.17
2023-04-22T16:20:14.598Z,6.20
2023-04-22T16:22:47.399Z,5.73
2023-04-22T16:25:22.235Z,5.63
2023-04-22T16:27:55.377Z,6.30
2023-04-22T16:30:28.277Z,5.67
2023-04-22T16:33:01.052Z,6.40
2023-04-22T16:35:36.395Z,7.53
2023-04-22T16:38:10.027Z,6.60
2023-04-22T16:40:44.213Z,5.50
2023-04-22T16:43:18.185Z,6.37
2023-04-22T16:45:51.167Z,5.67
2023-04-22T16:48:24.351Z,6.40
2023-04-22T16:50:57.722Z,6.20
2023-04-22T16:53:31.293Z,6.67
2023-04-22T16:56:05.870Z,6.50
2023-04-22T16:58:38.825Z,7.00
2023-04-22T17:01:11.989Z,6.53
2023-04-22T17:03:45.770Z,7.33
2023-04-22T17:06:18.794Z,6.97
2023-04-22T17:08:52.706Z,6.43
2023-04-22T17:11:27.144Z,6.03
2023-04-22T17:14:00.158Z,5.73
2023-04-22T17:16:33.405Z,6.27
2023-04-22T17:19:09.716Z,6.23
2023-04-22T17:21:45.612Z,6.80
2023-04-22T17:24:20.014Z,6.43
2023-04-22T17:26:55.413Z,6.80
2023-04-22T17:29:28.583Z,7.43
2023-04-22T17:32:01.689Z,7.80
2023-04-22T17:34:37.218Z,7.67
2023-04-22T17:37:10.096Z,7.77
2023-04-22T17:39:45.672Z,7.03
2023-04-22T17:42:20.269Z,7.30
2023-04-22T17:44:53.465Z,6.80
2023-04-22T17:47:27.158Z,7.00
2023-04-22T17:50:00.179Z,6.70
2023-04-22T17:52:33.035Z,6.80
2023-04-22T17:55:06.542Z,6.60
2023-04-22T17:57:40.901Z,7.10
2023-04-22T18:00:14.877Z,7.73
2023-04-22T18:02:48.004Z,7.80
2023-04-22T18:05:21.269Z,6.93
2023-04-22T18:07:58.042Z,7.60
2023-04-22T18:10:31.646Z,7.93
2023-04-22T18:13:06.407Z,7.90
2023-04-22T18:15:41.679Z,8.13
2023-04-22T18:18:16.156Z,7.90
2023-04-22T18:20:49.437Z,8.00
2023-04-22T18:23:24.907Z,7.40
2023-04-22T18:26:00.008Z,7.77
2023-04-22T18:28:34.333Z,8.80
2023-04-22T18:31:07.860Z,8.33
2023-04-22T18:33:40.811Z,8.73
2023-04-22T18:36:13.771Z,8.10
2023-04-22T18:38:46.745Z,8.50
2023-04-22T18:41:24.323Z,8.30
2023-04-22T18:43:58.686Z,8.27
2023-04-22T18:46:31.725Z,8.53
2023-04-22T18:49:12.200Z,7.80
2023-04-22T18:51:47.497Z,7.90
2023-04-22T18:54:20.566Z,8.47
2023-04-22T18:56:53.676Z,8.33
2023-04-22T18:59:27.995Z,8.03
2023-04-22T19:02:03.088Z,8.23
2023-04-22T19:04:35.940Z,7.63
2023-04-22T19:07:08.921Z,8.73
2023-04-22T19:09:41.769Z,8.97
2023-04-22T19:12:18.889Z,8.47
2023-04-22T19:14:53.413Z,8.17
2023-04-22T19:17:26.227Z,8.53
2023-04-22T19:19:59.064Z,8.43
2023-04-22T19:22:34.855Z,8.83
2023-04-22T19:25:08.351Z,9.10
2023-04-22T19:27:41.827Z,9.27
2023-04-22T19:30:16.486Z,9.20
2023-04-22T19:32:49.968Z,9.40
2023-04-22T19:35:24.928Z,8.57
2023-04-22T19:38:02.197Z,9.10
2023-04-22T19:40:37.284Z,8.70
2023-04-22T19:43:17.368Z,9.83
2023-04-22T19:45:52.074Z,8.40
2023-04-22T19:48:25.503Z,9.60
2023-04-22T19:50:59.114Z,8.97
2023-04-22T19:53:32.671Z,8.57
2023-04-22T19:56:05.859Z,9.53
2023-04-22T19:58:42.609Z,9.30
2023-04-22T20:01:17.385Z,9.47
2023-04-22T20:03:50.817Z,9.57
2023-04-22T20:06:24.189Z,9.13
2023-04-22T20:09:00.370Z,8.90
2023-04-22T20:11:34.953Z,10.23
2023-04-22T20:14:09.931Z,9.63
2023-04-22T20:16:46.339Z,9.00
2023-04-22T20:19:20.150Z,9.93
2023-04-22T20:21:55.406Z,8.77
2023-04-22T20:24:32.857Z,8.80
2023-04-22T20:27:05.909Z,10.20
2023-04-22T20:29:41.710Z,9.40
2023-04-22T20:32:17.511Z,9.37
2023-04-22T20:34:50.828Z,9.07
2023-04-22T20:37:24.522Z,9.23
2023-04-22T20:39:57.677Z,9.37
2023-04-22T20:42:32.331Z,8.73
2023-04-22T20:45:05.839Z,9.90
2023-04-22T20:47:40.955Z,9.93
2023-04-22T20:50:17.390Z,9.43
2023-04-22T20:52:50.328Z,9.80
2023-04-22T20:55:32.004Z,9.53
2023-04-22T20:58:05.305Z,9.43
2023-04-22T21:00:38.192Z,9.03
2023-04-22T21:03:15.821Z,8.53
2023-04-22T21:05:48.955Z,9.43
2023-04-22T21:08:22.825Z,8.17
2023-04-22T21:10:56.581Z,9.83
2023-04-22T21:13:30.025Z,10.10
2023-04-22T21:16:03.753Z,8.63
2023-04-22T21:18:39.858Z,9.00
2023-04-22T21:21:14.066Z,9.10
2023-04-22T21:23:46.816Z,9.60
2023-04-22T21:26:19.661Z,9.57
2023-04-22T21:28:52.886Z,9.43
2023-04-22T21:31:27.143Z,9.23
2023-04-22T21:34:06.514Z,8.97
2023-04-22T21:36:41.774Z,9.03
2023-04-22T21:39:14.708Z,8.73
2023-04-22T21:41:47.724Z,8.80
2023-04-22T21:44:23.240Z,8.87
2023-04-22T21:46:57.659Z,9.13
2023-04-22T21:49:31.893Z,9.03
2023-04-22T21:52:05.175Z,8.77
2023-04-22T21:54:40.884Z,9.03
2023-04-22T21:57:14.303Z,9.50
2023-04-22T21:59:47.191Z,9.40
2023-04-22T22:02:20.905Z,9.77
2023-04-22T22:04:55.388Z,9.60
2023-04-22T22:07:28.321Z,9.00
2023-04-22T22:10:01.220Z,9.80
2023-04-22T22:12:34.060Z,9.23
2023-04-22T22:15:09.033Z,9.47
2023-04-22T22:17:42.030Z,9.50
2023-04-22T22:20:20.204Z,9.10
2023-04-22T22:22:57.150Z,9.77
2023-04-22T22:25:32.423Z,9.20
2023-04-22T22:28:05.476Z,9.60
2023-04-22T22:30:38.589Z,9.13
2023-04-22T22:33:11.627Z,9.67
2023-04-22T22:35:45.996Z,10.03
2023-04-22T22:38:18.866Z,9.27
2023-04-22T22:40:54.380Z,9.60
2023-04-22T22:43:28.075Z,9.03
2023-04-22T22:46:01.058Z,9.33
2023-04-22T22:48:34.590Z,9.87
2023-04-22T22:51:09.472Z,9.43
2023-04-22T22:53:42.480Z,8.73
2023-04-22T22:56:15.625Z,9.07
2023-04-22T22:58:48.686Z,10.30
2023-04-22T23:01:21.993Z,9.27
2023-04-22T23:03:54.990Z,9.33
2023-04-22T23:06:29.758Z,9.17
2023-04-22T23:09:05.296Z,9.50
2023-04-22T23:11:38.180Z,9.03
2023-04-22T23:14:11.643Z,9.00
2023-04-22T23:16:44.805Z,9.53
2023-04-22T23:19:18.091Z,9.57
2023-04-22T23:21:52.723Z,8.47
2023-04-22T23:24:25.852Z,9.47
2023-04-22T23:26:58.862Z,9.00
2023-04-22T23:29:34.705Z,9.23
2023-04-22T23:32:09.140Z,9.30
2023-04-22T23:34:47.481Z,9.00
2023-04-22T23:37:22.026Z,8.43
2023-04-22T23:39:57.336Z,8.93
2023-04-22T23:42:30.399Z,9.63
2023-04-22T23:45:04.208Z,8.47
2023-04-22T23:47:37.224Z,8.47
2023-04-22T23:50:10.577Z,8.87
2023-04-22T23:52:44.804Z,9.27
2023-04-22T23:55:18.725Z,8.70
2023-04-22T23:57:51.942Z,9.40
